createdAt,value
2022-08-12T00:00:16.513Z,61.07
2022-08-12T00:02:44.068Z,58.24
2022-08-12T00:05:11.930Z,54.18
2022-08-12T00:07:39.039Z,50.67
2022-08-12T00:10:07.283Z,48.33
2022-08-12T00:12:33.616Z,47.03
2022-08-12T00:15:00.948Z,45.79
2022-08-12T00:17:27.794Z,45.87
2022-08-12T00:19:55.699Z,45.06
2022-08-12T00:22:24.924Z,45.36
2022-08-12T00:24:57.433Z,45.59
2022-08-12T00:27:43.952Z,44.89
2022-08-12T00:30:11.306Z,44.84
2022-08-12T00:32:38.285Z,44.59
2022-08-12T00:35:09.057Z,44.66
2022-08-12T00:37:36.010Z,45.29
2022-08-12T00:40:04.758Z,45.80
2022-08-12T00:42:39.441Z,46.15
2022-08-12T00:45:06.183Z,49.80
2022-08-12T00:47:33.317Z,50.70
2022-08-12T00:50:00.786Z,52.31
2022-08-12T00:52:27.429Z,53.21
2022-08-12T00:54:55.023Z,54.87
2022-08-12T00:57:23.336Z,55.46
2022-08-12T00:59:51.609Z,56.58
2022-08-12T01:02:36.123Z,57.08
2022-08-12T01:05:02.603Z,57.97
2022-08-12T01:07:29.705Z,58.54
2022-08-12T01:09:56.055Z,59.33
2022-08-12T01:12:23.703Z,60.42
2022-08-12T01:14:51.606Z,61.04
2022-08-12T01:17:18.284Z,61.73
2022-08-12T01:19:44.877Z,61.92
2022-08-12T01:22:23.180Z,62.40
2022-08-12T01:24:58.415Z,63.48
2022-08-12T01:27:26.707Z,63.91
2022-08-12T01:29:54.239Z,64.47
2022-08-12T01:32:21.893Z,64.52
2022-08-12T01:35:08.631Z,65.00
2022-08-12T01:37:39.339Z,65.95
2022-08-12T01:40:34.587Z,65.63
2022-08-12T01:42:57.676Z,66.12
2022-08-12T01:45:25.969Z,66.01
2022-08-12T01:48:01.447Z,65.46
2022-08-12T01:50:51.367Z,65.63
2022-08-12T01:53:21.146Z,65.65
2022-08-12T01:55:50.142Z,65.63
2022-08-12T01:58:19.480Z,66.21
2022-08-12T02:00:55.438Z,66.50
2022-08-12T02:03:30.692Z,66.28
2022-08-12T02:06:01.860Z,66.64
2022-08-12T02:08:33.864Z,66.32
2022-08-12T02:11:21.807Z,66.89
2022-08-12T02:13:54.212Z,67.35
2022-08-12T02:16:32.767Z,66.95
2022-08-12T02:19:22.825Z,67.61
2022-08-12T02:22:02.927Z,67.50
2022-08-12T02:24:32.549Z,67.52
2022-08-12T02:26:59.839Z,67.26
2022-08-12T02:29:26.740Z,68.58
2022-08-12T02:31:53.652Z,69.14
2022-08-12T02:34:20.742Z,69.42
2022-08-12T02:36:47.810Z,69.99
2022-08-12T02:39:15.801Z,70.38
2022-08-12T02:41:43.517Z,70.67
2022-08-12T02:44:10.466Z,71.03
2022-08-12T02:46:37.491Z,71.94
2022-08-12T02:49:13.150Z,72.14
2022-08-12T02:51:40.378Z,72.60
2022-08-12T02:54:07.277Z,72.77
2022-08-12T02:56:35.734Z,72.04
2022-08-12T02:59:02.208Z,72.17
2022-08-12T03:01:29.320Z,72.49
2022-08-12T03:03:59.727Z,72.94
2022-08-12T03:06:26.619Z,73.03
2022-08-12T03:08:55.470Z,74.21
2022-08-12T03:11:37.742Z,73.95
2022-08-12T03:14:10.154Z,73.86
2022-08-12T03:16:36.971Z,74.17
2022-08-12T03:19:06.086Z,73.46
2022-08-12T03:21:52.780Z,73.38
2022-08-12T03:24:25.799Z,73.97
2022-08-12T03:26:54.721Z,73.79
2022-08-12T03:29:30.639Z,74.46
2022-08-12T03:32:00.176Z,75.27
2022-08-12T03:34:28.793Z,74.98
2022-08-12T03:36:57.179Z,75.91
2022-08-12T03:39:36.812Z,76.74
2022-08-12T03:42:09.947Z,77.95
2022-08-12T03:44:44.362Z,78.56
2022-08-12T03:47:22.743Z,78.53
2022-08-12T03:49:50.552Z,78.26
2022-08-12T03:52:17.243Z,78.13
2022-08-12T03:54:43.723Z,78.09
2022-08-12T03:57:10.507Z,78.20
2022-08-12T03:59:36.883Z,78.59
2022-08-12T04:02:03.808Z,79.21
2022-08-12T04:04:31.578Z,79.45
2022-08-12T04:07:00.808Z,79.22
2022-08-12T04:09:27.650Z,79.56
2022-08-12T04:11:54.027Z,78.84
2022-08-12T04:14:20.479Z,79.39
2022-08-12T04:16:50.515Z,79.93
2022-08-12T04:19:19.628Z,79.98
2022-08-12T04:22:00.979Z,80.58
2022-08-12T04:24:30.402Z,81.54
2022-08-12T04:26:58.171Z,81.51
2022-08-12T04:30:29.101Z,82.71
2022-08-12T04:32:11.251Z,82.67
2022-08-12T04:34:37.579Z,83.61
2022-08-12T04:37:04.095Z,83.48
2022-08-12T04:39:32.694Z,82.72
2022-08-12T04:41:59.207Z,82.51
2022-08-12T04:44:27.063Z,82.09
2022-08-12T04:46:53.802Z,81.43
2022-08-12T04:49:21.584Z,82.04
2022-08-12T04:51:56.768Z,83.41
2022-08-12T04:54:27.028Z,83.37
2022-08-12T04:57:03.258Z,83.86
2022-08-12T04:59:47.276Z,83.59
2022-08-12T05:02:17.213Z,83.95
2022-08-12T05:04:49.709Z,83.61
2022-08-12T05:07:15.995Z,83.93
2022-08-12T05:09:59.300Z,84.12
2022-08-12T05:12:30.060Z,82.51
2022-08-12T05:14:58.300Z,78.59
2022-08-12T05:17:28.316Z,77.18
2022-08-12T05:19:54.884Z,76.44
2022-08-12T05:22:23.899Z,75.54
2022-08-12T05:24:50.681Z,76.47
2022-08-12T05:27:17.128Z,76.59
2022-08-12T05:30:08.355Z,76.88
2022-08-12T05:32:29.780Z,77.05
2022-08-12T05:34:58.368Z,77.45
2022-08-12T05:37:24.760Z,76.81
2022-08-12T05:39:51.223Z,76.63
2022-08-12T05:42:18.576Z,76.09
2022-08-12T05:44:57.522Z,75.16
2022-08-12T05:47:24.249Z,73.79
2022-08-12T05:50:10.646Z,72.92
2022-08-12T05:52:39.920Z,72.19
2022-08-12T05:55:07.076Z,70.69
2022-08-12T05:57:34.262Z,69.86
2022-08-12T06:00:02.440Z,68.73
2022-08-12T06:02:29.640Z,66.77
2022-08-12T06:04:58.186Z,64.61
2022-08-12T06:08:00.331Z,62.67
2022-08-12T06:10:11.289Z,54.87
2022-08-12T06:12:39.559Z,52.58
2022-08-12T06:15:06.184Z,51.24
2022-08-12T06:17:32.694Z,50.02
2022-08-12T06:20:26.045Z,50.12
2022-08-12T06:22:46.786Z,48.27
2022-08-12T06:25:17.539Z,47.39
2022-08-12T06:28:06.202Z,46.86
2022-08-12T06:30:37.863Z,46.09
2022-08-12T06:33:18.542Z,45.48
2022-08-12T06:35:50.239Z,45.21
2022-08-12T06:38:21.950Z,44.80
2022-08-12T06:40:49.975Z,45.18
2022-08-12T06:43:16.279Z,44.31
2022-08-12T06:45:45.722Z,44.42
2022-08-12T06:48:13.021Z,43.66
2022-08-12T06:50:40.322Z,43.52
2022-08-12T06:53:07.247Z,43.46
2022-08-12T06:55:33.822Z,42.69
2022-08-12T06:58:07.862Z,42.57
2022-08-12T07:00:37.762Z,42.76
2022-08-12T07:03:16.566Z,42.64
2022-08-12T07:05:51.117Z,42.55
2022-08-12T07:08:17.836Z,42.00
2022-08-12T07:10:46.112Z,42.21
2022-08-12T07:13:14.405Z,42.22
2022-08-12T07:15:40.866Z,42.16
2022-08-12T07:18:10.517Z,41.49
2022-08-12T07:20:52.198Z,40.85
2022-08-12T07:23:19.577Z,40.69
2022-08-12T07:25:46.593Z,41.11
2022-08-12T07:28:16.156Z,40.38
2022-08-12T07:30:46.252Z,39.91
2022-08-12T07:33:13.050Z,39.64
2022-08-12T07:35:40.235Z,39.94
2022-08-12T07:38:18.043Z,39.63
2022-08-12T07:41:14.481Z,39.38
2022-08-12T07:44:04.773Z,38.67
2022-08-12T07:46:35.713Z,38.53
2022-08-12T07:49:04.636Z,37.89
2022-08-12T07:51:31.406Z,37.92
2022-08-12T07:54:02.984Z,37.03
2022-08-12T07:56:30.296Z,35.93
2022-08-12T07:58:57.485Z,36.59
2022-08-12T08:01:27.216Z,36.21
2022-08-12T08:04:02.200Z,36.43
2022-08-12T08:06:28.883Z,36.33
2022-08-12T08:08:55.271Z,36.00
2022-08-12T08:11:22.185Z,35.61
2022-08-12T08:13:48.516Z,34.96
2022-08-12T08:16:14.995Z,34.47
2022-08-12T08:18:42.671Z,34.36
2022-08-12T08:21:09.005Z,34.47
2022-08-12T08:23:37.149Z,34.43
2022-08-12T08:26:03.699Z,34.56
2022-08-12T08:28:31.488Z,33.87
2022-08-12T08:31:00.183Z,33.79
2022-08-12T08:34:04.862Z,33.43
2022-08-12T08:36:16.386Z,33.74
2022-08-12T08:38:57.778Z,33.17
2022-08-12T08:42:17.089Z,32.55
2022-08-12T08:44:13.931Z,32.80
2022-08-12T08:46:40.938Z,32.30
2022-08-12T08:49:07.516Z,32.36
2022-08-12T08:51:33.984Z,32.38
2022-08-12T08:54:02.796Z,32.11
2022-08-12T08:56:29.386Z,31.81
2022-08-12T08:58:56.348Z,31.87
2022-08-12T09:01:22.751Z,30.65
2022-08-12T09:05:09.570Z,31.49
2022-08-12T09:06:37.115Z,31.01
2022-08-12T09:09:12.775Z,30.25
2022-08-12T09:12:07.130Z,30.30
2022-08-12T09:14:29.501Z,30.34
2022-08-12T09:16:55.896Z,30.31
2022-08-12T09:19:27.423Z,30.92
2022-08-12T09:21:55.522Z,30.74
2022-08-12T09:24:22.284Z,29.97
2022-08-12T09:26:49.336Z,29.57
2022-08-12T09:29:16.640Z,29.71
2022-08-12T09:32:03.275Z,29.17
2022-08-12T09:34:37.604Z,29.09
2022-08-12T09:37:19.312Z,29.81
2022-08-12T09:40:03.159Z,28.95
2022-08-12T09:42:42.923Z,28.44
2022-08-12T09:45:23.330Z,27.91
2022-08-12T09:47:59.142Z,28.11
2022-08-12T09:50:26.447Z,28.10
2022-08-12T09:53:06.510Z,28.00
2022-08-12T09:56:06.219Z,27.72
2022-08-12T09:58:58.288Z,27.19
2022-08-12T10:01:23.330Z,27.17
2022-08-12T10:03:55.446Z,26.84
2022-08-12T10:06:32.472Z,26.26
2022-08-12T10:09:06.443Z,26.41
2022-08-12T10:12:10.287Z,25.98
2022-08-12T10:14:21.651Z,25.40
2022-08-12T10:17:01.402Z,26.42
2022-08-12T10:19:36.623Z,25.74
2022-08-12T10:22:03.618Z,25.75
2022-08-12T10:24:30.086Z,25.51
2022-08-12T10:26:56.521Z,25.86
2022-08-12T10:30:38.427Z,25.83
2022-08-12T10:32:22.383Z,25.02
2022-08-12T10:34:58.196Z,23.90
2022-08-12T10:38:35.547Z,24.39
2022-08-12T10:40:15.749Z,24.75
2022-08-12T10:42:46.918Z,24.43
2022-08-12T10:45:14.240Z,23.98
2022-08-12T10:48:07.360Z,23.82
2022-08-12T10:50:56.153Z,23.53
2022-08-12T10:53:19.932Z,24.38
2022-08-12T10:55:47.381Z,24.51
2022-08-12T10:58:31.915Z,24.51
2022-08-12T11:03:01.489Z,24.33
2022-08-12T11:04:22.340Z,25.58
2022-08-12T11:07:08.743Z,24.90
2022-08-12T11:09:19.044Z,24.65
2022-08-12T11:12:35.136Z,24.64
2022-08-12T11:14:53.137Z,24.10
2022-08-12T11:17:43.607Z,24.87
2022-08-12T11:20:07.568Z,24.78
2022-08-12T11:22:34.158Z,24.28
2022-08-12T11:25:01.265Z,24.60
2022-08-12T11:27:37.828Z,24.57
2022-08-12T11:30:06.748Z,23.93
2022-08-12T11:32:51.382Z,24.54
2022-08-12T11:35:17.989Z,24.06
2022-08-12T11:37:57.878Z,23.96
2022-08-12T11:40:25.021Z,23.54
2022-08-12T11:42:52.544Z,23.68
2022-08-12T11:45:21.180Z,23.85
2022-08-12T11:47:50.427Z,23.91
2022-08-12T11:53:02.832Z,23.51
2022-08-12T11:55:29.752Z,23.15
2022-08-12T11:58:42.306Z,23.86
2022-08-12T12:03:44.256Z,24.21
2022-08-12T12:06:23.562Z,25.15
2022-08-12T12:08:53.633Z,24.77
2022-08-12T12:11:21.969Z,23.80
2022-08-12T12:14:07.252Z,23.33
2022-08-12T12:16:38.439Z,23.57
2022-08-12T12:19:06.182Z,24.13
2022-08-12T12:21:47.574Z,24.52
2022-08-12T12:24:20.953Z,23.64
2022-08-12T12:26:59.694Z,24.58
2022-08-12T12:30:17.613Z,24.20
2022-08-12T12:32:14.186Z,24.27
2022-08-12T12:35:13.161Z,25.09
2022-08-12T12:38:05.013Z,24.43
2022-08-12T12:40:14.298Z,24.79
2022-08-12T12:42:42.786Z,24.69
2022-08-12T12:45:26.102Z,23.93
2022-08-12T12:47:55.016Z,23.84
2022-08-12T12:50:35.334Z,24.60
2022-08-12T12:53:02.999Z,24.23
2022-08-12T12:55:35.469Z,24.41
2022-08-12T12:58:02.368Z,23.62
2022-08-12T13:00:28.903Z,24.08
2022-08-12T13:02:55.527Z,24.68
2022-08-12T13:05:27.807Z,24.51
2022-08-12T13:08:01.147Z,24.77
2022-08-12T13:10:32.135Z,24.65
2022-08-12T13:15:51.440Z,25.70
2022-08-12T13:18:18.209Z,25.89
2022-08-12T13:20:45.818Z,24.36
2022-08-12T13:23:36.984Z,24.64
2022-08-12T13:26:00.508Z,24.48
2022-08-12T13:28:28.440Z,25.45
2022-08-12T13:30:56.190Z,25.22
2022-08-12T13:33:22.525Z,25.05
2022-08-12T13:36:05.154Z,24.74
2022-08-12T13:38:35.525Z,24.70
2022-08-12T13:41:11.735Z,24.11
2022-08-12T13:43:40.293Z,24.45
2022-08-12T13:46:08.315Z,23.86
2022-08-12T13:48:38.843Z,23.60
2022-08-12T13:51:11.072Z,23.93
2022-08-12T13:53:54.841Z,22.80
2022-08-12T13:56:23.743Z,22.89
2022-08-12T13:58:52.547Z,22.82
2022-08-12T14:01:20.242Z,23.67
2022-08-12T14:03:51.104Z,24.67
2022-08-12T14:06:20.434Z,24.42
2022-08-12T14:08:49.812Z,24.55
2022-08-12T14:11:17.693Z,25.49
2022-08-12T14:14:03.350Z,25.28
2022-08-12T14:16:46.735Z,25.20
2022-08-12T14:19:22.366Z,24.28
2022-08-12T14:22:01.530Z,23.91
2022-08-12T14:24:31.997Z,22.72
2022-08-12T14:27:02.099Z,23.11
2022-08-12T14:29:55.645Z,23.43
2022-08-12T14:32:18.251Z,23.59
2022-08-12T14:34:46.792Z,23.95
2022-08-12T14:37:54.871Z,23.63
2022-08-12T14:40:01.218Z,23.17
2022-08-12T14:42:28.230Z,24.07
2022-08-12T14:44:57.268Z,24.50
2022-08-12T14:47:35.287Z,25.02
2022-08-12T14:50:37.680Z,25.05
2022-08-12T14:54:55.858Z,24.90
2022-08-12T14:58:21.412Z,24.95
2022-08-12T15:00:52.151Z,24.63
2022-08-12T15:03:52.951Z,24.70
2022-08-12T15:06:44.368Z,24.60
2022-08-12T15:09:02.427Z,23.98
2022-08-12T15:11:55.579Z,24.99
2022-08-12T15:14:19.097Z,24.75
2022-08-12T15:16:45.502Z,24.57
2022-08-12T15:19:39.084Z,23.89
2022-08-12T15:22:37.373Z,24.29
2022-08-12T15:24:45.045Z,24.03
2022-08-12T15:27:15.773Z,24.43
2022-08-12T15:29:52.350Z,23.95
2022-08-12T15:32:32.247Z,23.75
2022-08-12T15:34:59.827Z,23.93
2022-08-12T15:38:08.285Z,24.05
2022-08-12T15:40:14.289Z,24.25
2022-08-12T15:42:50.761Z,24.21
2022-08-12T15:45:21.367Z,24.88
2022-08-12T15:47:50.493Z,24.58
2022-08-12T15:50:23.237Z,24.39
2022-08-12T15:52:53.085Z,24.56
2022-08-12T15:55:21.471Z,24.61
2022-08-12T15:57:50.406Z,24.41
2022-08-12T16:00:31.846Z,24.37
2022-08-12T16:03:05.686Z,24.72
2022-08-12T16:06:15.536Z,24.88
2022-08-12T16:08:27.254Z,23.89
2022-08-12T16:10:54.245Z,24.47
2022-08-12T16:13:25.425Z,24.53
2022-08-12T16:16:02.413Z,24.55
2022-08-12T16:18:31.622Z,24.62
2022-08-12T16:20:59.395Z,24.16
2022-08-12T16:23:36.360Z,24.43
2022-08-12T16:26:15.481Z,25.05
2022-08-12T16:28:47.219Z,25.17
2022-08-12T16:31:23.374Z,25.09
2022-08-12T16:33:56.269Z,25.26
2022-08-12T16:36:26.694Z,25.34
2022-08-12T16:38:53.112Z,24.42
2022-08-12T16:41:20.717Z,24.36
2022-08-12T16:43:47.963Z,25.05
2022-08-12T16:46:31.570Z,24.37
2022-08-12T16:49:08.874Z,24.92
2022-08-12T16:51:40.389Z,24.38
2022-08-12T16:54:14.271Z,24.22
2022-08-12T16:56:54.840Z,23.82
2022-08-12T16:59:24.102Z,24.05
2022-08-12T17:01:51.699Z,23.83
2022-08-12T17:04:18.530Z,23.74
2022-08-12T17:06:45.435Z,23.41
2022-08-12T17:09:17.888Z,23.08
2022-08-12T17:11:44.942Z,22.68
2022-08-12T17:14:15.396Z,23.28
2022-08-12T17:16:41.737Z,23.29
2022-08-12T17:19:09.750Z,23.36
2022-08-12T17:21:41.277Z,23.47
2022-08-12T17:24:21.488Z,23.30
2022-08-12T17:26:51.754Z,23.50
2022-08-12T17:29:19.004Z,23.56
2022-08-12T17:32:01.144Z,24.00
2022-08-12T17:34:30.301Z,24.00
2022-08-12T17:36:56.648Z,24.16
2022-08-12T17:39:23.586Z,24.35
2022-08-12T17:41:56.542Z,24.48
2022-08-12T17:44:23.646Z,24.49
2022-08-12T17:46:53.940Z,24.86
2022-08-12T17:50:03.190Z,24.53
2022-08-12T17:52:08.932Z,24.65
2022-08-12T17:54:37.215Z,24.43
2022-08-12T17:57:16.257Z,24.68
2022-08-12T17:59:48.717Z,24.38
2022-08-12T18:02:16.635Z,24.56
2022-08-12T18:05:05.252Z,24.57
2022-08-12T18:07:30.284Z,24.96
2022-08-12T18:10:02.431Z,24.65
2022-08-12T18:12:34.779Z,24.68
2022-08-12T18:15:08.719Z,25.20
2022-08-12T18:17:39.066Z,25.27
2022-08-12T18:20:07.891Z,25.43
2022-08-12T18:22:35.137Z,26.27
2022-08-12T18:25:04.705Z,26.26
2022-08-12T18:27:44.358Z,26.47
2022-08-12T18:30:20.343Z,26.95
2022-08-12T18:32:59.470Z,27.20
2022-08-12T18:35:47.201Z,27.78
2022-08-12T18:38:17.149Z,28.60
2022-08-12T18:40:45.421Z,29.03
2022-08-12T18:43:15.159Z,29.84
2022-08-12T18:45:47.080Z,30.71
2022-08-12T18:48:24.378Z,31.29
2022-08-12T18:51:03.715Z,31.65
2022-08-12T18:54:06.648Z,29.74
2022-08-12T18:56:33.272Z,29.78
2022-08-12T18:59:01.753Z,29.71
2022-08-12T19:02:20.551Z,30.20
2022-08-12T19:04:16.206Z,30.73
2022-08-12T19:06:46.401Z,30.96
2022-08-12T19:09:14.379Z,31.37
2022-08-12T19:11:45.371Z,31.75
2022-08-12T19:14:11.744Z,32.24
2022-08-12T19:16:41.517Z,32.49
2022-08-12T19:19:11.433Z,32.49
2022-08-12T19:21:44.579Z,33.19
2022-08-12T19:24:23.185Z,33.31
2022-08-12T19:26:57.320Z,33.75
2022-08-12T19:29:23.934Z,34.10
2022-08-12T19:31:58.131Z,34.06
2022-08-12T19:37:27.154Z,34.56
2022-08-12T19:40:09.975Z,34.88
2022-08-12T19:42:48.443Z,35.18
2022-08-12T19:45:20.436Z,35.18
2022-08-12T19:47:48.697Z,35.43
2022-08-12T19:50:20.214Z,35.36
2022-08-12T19:52:50.888Z,35.66
2022-08-12T19:55:21.281Z,35.78
2022-08-12T19:58:02.539Z,35.46
2022-08-12T20:00:30.313Z,35.48
2022-08-12T20:02:56.949Z,34.86
2022-08-12T20:06:06.240Z,35.50
2022-08-12T20:08:33.060Z,35.48
2022-08-12T20:12:13.089Z,35.34
2022-08-12T20:13:47.731Z,35.71
2022-08-12T20:16:52.902Z,35.77
2022-08-12T20:19:14.144Z,36.12
2022-08-12T20:21:42.574Z,36.42
2022-08-12T20:24:10.725Z,36.47
2022-08-12T20:26:39.999Z,36.42
2022-08-12T20:29:06.864Z,36.82
2022-08-12T20:31:35.674Z,37.38
2022-08-12T20:34:03.045Z,38.58
2022-08-12T20:36:40.769Z,38.40
2022-08-12T20:39:34.104Z,39.01
2022-08-12T20:42:00.594Z,39.62
2022-08-12T20:44:28.040Z,40.79
2022-08-12T20:46:55.417Z,41.35
2022-08-12T20:49:25.827Z,41.78
2022-08-12T20:52:02.244Z,42.20
2022-08-12T20:54:32.476Z,42.38
2022-08-12T20:57:00.921Z,42.53
2022-08-12T20:59:31.767Z,42.79
2022-08-12T21:01:58.536Z,42.98
2022-08-12T21:04:31.297Z,43.56
2022-08-12T21:06:58.213Z,44.22
2022-08-12T21:09:40.569Z,44.63
2022-08-12T21:12:28.262Z,44.80
2022-08-12T21:14:58.881Z,45.00
2022-08-12T21:18:00.954Z,45.56
2022-08-12T21:20:22.490Z,45.89
2022-08-12T21:22:51.363Z,45.86
2022-08-12T21:25:18.137Z,45.94
2022-08-12T21:27:58.037Z,45.95
2022-08-12T21:30:37.157Z,46.27
2022-08-12T21:33:04.527Z,46.44
2022-08-12T21:35:40.041Z,46.75
2022-08-12T21:38:07.331Z,46.81
2022-08-12T21:40:37.173Z,46.88
2022-08-12T21:43:17.946Z,46.90
2022-08-12T21:46:00.792Z,47.19
2022-08-12T21:48:28.920Z,48.07
2022-08-12T21:50:56.234Z,48.53
2022-08-12T21:54:05.852Z,49.06
2022-08-12T21:56:11.019Z,49.93
2022-08-12T21:58:57.582Z,50.85
2022-08-12T22:10:28.559Z,52.83
2022-08-12T22:15:50.966Z,52.28
2022-08-12T22:18:56.743Z,52.49
2022-08-12T22:21:29.392Z,52.55
2022-08-12T22:24:35.191Z,52.70
2022-08-12T23:06:10.551Z,58.91
2022-08-12T23:08:37.798Z,58.89
2022-08-12T23:11:06.381Z,58.97
2022-08-12T23:13:43.395Z,59.45
2022-08-12T23:16:18.117Z,59.80
2022-08-12T23:18:54.154Z,60.31
2022-08-12T23:21:24.501Z,60.56
2022-08-12T23:24:09.596Z,60.83
2022-08-12T23:26:37.089Z,62.13
2022-08-12T23:29:25.991Z,62.95
2022-08-12T23:32:01.791Z,63.71
2022-08-12T23:34:34.983Z,64.22
2022-08-12T23:37:01.847Z,64.43
2022-08-12T23:40:13.829Z,65.06
2022-08-12T23:42:19.430Z,64.61
2022-08-12T23:44:46.372Z,65.00
2022-08-12T23:47:14.786Z,65.12
2022-08-12T23:49:58.103Z,64.59
2022-08-12T23:52:28.543Z,64.74
2022-08-12T23:55:23.874Z,64.71
2022-08-12T23:58:17.901Z,64.55
